createdAt,value
2022-12-15T00:00:10.775Z,15.20
2022-12-15T00:02:56.374Z,14.90
2022-12-15T00:05:41.864Z,14.80
2022-12-15T00:08:28.611Z,14.70
2022-12-15T00:11:14.551Z,14.70
2022-12-15T00:14:00.353Z,14.60
2022-12-15T00:16:46.263Z,14.70
2022-12-15T00:19:32.138Z,14.80
2022-12-15T00:22:17.493Z,14.80
2022-12-15T00:25:03.290Z,15.10
2022-12-15T00:27:48.917Z,15.00
2022-12-15T00:30:34.356Z,15.20
2022-12-15T00:33:24.828Z,15.60
2022-12-15T00:36:10.488Z,16.20
2022-12-15T00:38:46.377Z,16.60
2022-12-15T00:41:16.078Z,16.80
2022-12-15T00:43:43.796Z,16.90
2022-12-15T00:46:29.436Z,16.80
2022-12-15T00:48:56.763Z,16.70
2022-12-15T00:51:43.164Z,16.70
2022-12-15T00:54:29.155Z,16.50
2022-12-15T00:57:15.007Z,16.10
2022-12-15T01:00:01.660Z,15.70
2022-12-15T01:02:47.298Z,15.40
2022-12-15T01:05:33.194Z,15.20
2022-12-15T01:08:19.085Z,15.10
2022-12-15T01:11:04.468Z,15.10
2022-12-15T01:13:50.087Z,15.40
2022-12-15T01:16:35.896Z,15.50
2022-12-15T01:19:21.683Z,15.50
2022-12-15T01:21:49.862Z,16.30
2022-12-15T01:24:17.046Z,15.70
2022-12-15T01:26:44.040Z,15.90
2022-12-15T01:29:10.996Z,15.90
2022-12-15T01:31:38.000Z,15.70
2022-12-15T01:34:05.241Z,15.70
2022-12-15T01:36:32.131Z,15.70
2022-12-15T01:38:59.014Z,15.60
2022-12-15T01:41:26.035Z,15.70
2022-12-15T01:43:52.941Z,15.70
2022-12-15T01:46:23.115Z,15.50
2022-12-15T01:49:12.041Z,15.50
2022-12-15T01:51:43.077Z,15.70
2022-12-15T01:54:23.407Z,15.80
2022-12-15T01:56:55.398Z,16.00
2022-12-15T01:59:31.085Z,16.10
2022-12-15T02:01:58.310Z,15.80
2022-12-15T02:04:26.219Z,15.60
2022-12-15T02:06:53.530Z,15.40
2022-12-15T02:09:22.451Z,15.40
2022-12-15T02:11:52.382Z,15.30
2022-12-15T02:14:57.060Z,15.30
2022-12-15T02:17:57.366Z,15.40
2022-12-15T02:20:46.172Z,15.60
2022-12-15T02:23:28.287Z,15.40
2022-12-15T02:26:20.668Z,15.30
2022-12-15T02:29:19.358Z,15.10
2022-12-15T02:32:08.229Z,15.00
2022-12-15T02:34:44.855Z,15.20
2022-12-15T02:37:17.537Z,15.30
2022-12-15T02:39:44.893Z,15.40
2022-12-15T02:42:12.898Z,15.50
2022-12-15T02:44:48.425Z,15.50
2022-12-15T02:47:52.673Z,15.50
2022-12-15T02:50:49.091Z,15.40
2022-12-15T02:53:31.628Z,15.80
2022-12-15T02:56:09.647Z,16.50
2022-12-15T02:58:39.700Z,17.00
2022-12-15T03:01:29.795Z,17.10
2022-12-15T03:03:58.523Z,16.90
2022-12-15T03:06:26.847Z,16.30
2022-12-15T03:08:53.773Z,15.90
2022-12-15T03:11:22.190Z,15.60
2022-12-15T03:13:49.866Z,15.60
2022-12-15T03:16:17.545Z,15.60
2022-12-15T03:18:44.541Z,15.50
2022-12-15T03:21:11.453Z,15.20
2022-12-15T03:23:38.910Z,15.00
2022-12-15T03:26:06.763Z,14.80
2022-12-15T03:28:34.358Z,14.60
2022-12-15T03:31:01.291Z,14.70
2022-12-15T03:33:28.537Z,14.60
2022-12-15T03:35:55.982Z,14.60
2022-12-15T03:38:22.895Z,14.40
2022-12-15T03:40:49.774Z,14.40
2022-12-15T03:43:16.628Z,14.30
2022-12-15T03:45:43.541Z,14.20
2022-12-15T03:48:10.524Z,14.70
2022-12-15T03:50:37.608Z,15.30
2022-12-15T03:53:04.998Z,15.50
2022-12-15T03:55:32.038Z,16.00
2022-12-15T03:57:59.431Z,16.70
2022-12-15T04:00:26.848Z,17.50
2022-12-15T04:02:54.470Z,17.50
2022-12-15T04:05:25.870Z,17.50
2022-12-15T04:07:53.957Z,17.60
2022-12-15T04:10:22.193Z,17.70
2022-12-15T04:12:49.722Z,17.80
2022-12-15T04:15:18.009Z,17.80
2022-12-15T04:17:44.901Z,17.80
2022-12-15T04:20:12.192Z,18.10
2022-12-15T04:22:50.207Z,18.30
2022-12-15T04:25:39.030Z,18.40
2022-12-15T04:28:25.164Z,18.30
2022-12-15T04:31:37.992Z,17.90
2022-12-15T04:34:26.907Z,17.80
2022-12-15T04:37:13.868Z,18.50
2022-12-15T04:40:04.685Z,17.70
2022-12-15T04:42:50.566Z,17.70
2022-12-15T04:45:39.322Z,17.50
2022-12-15T04:48:25.200Z,17.10
2022-12-15T04:51:10.523Z,16.70
2022-12-15T04:53:56.252Z,15.90
2022-12-15T04:56:41.475Z,15.50
2022-12-15T04:59:27.005Z,16.10
2022-12-15T05:02:12.813Z,15.60
2022-12-15T05:04:58.389Z,15.60
2022-12-15T05:07:44.620Z,15.50
2022-12-15T05:10:29.944Z,15.40
2022-12-15T05:13:26.175Z,15.30
2022-12-15T05:16:12.018Z,15.00
2022-12-15T05:18:57.868Z,14.90
2022-12-15T05:21:43.302Z,14.90
2022-12-15T05:24:29.097Z,15.10
2022-12-15T05:27:14.509Z,15.10
2022-12-15T05:30:00.108Z,15.20
2022-12-15T05:32:27.017Z,15.10
2022-12-15T05:34:53.972Z,15.20
2022-12-15T05:37:20.943Z,15.00
2022-12-15T05:39:47.826Z,14.90
2022-12-15T05:42:14.703Z,14.90
2022-12-15T05:44:41.727Z,14.90
2022-12-15T05:47:09.360Z,15.30
2022-12-15T05:49:36.251Z,16.10
2022-12-15T05:52:04.673Z,17.40
2022-12-15T05:54:31.548Z,18.50
2022-12-15T05:56:58.422Z,19.00
2022-12-15T05:59:25.370Z,19.00
2022-12-15T06:01:52.364Z,19.10
2022-12-15T06:04:19.623Z,19.30
2022-12-15T06:06:49.302Z,19.50
2022-12-15T06:09:16.270Z,19.80
2022-12-15T06:11:43.829Z,19.50
2022-12-15T06:14:10.812Z,19.30
2022-12-15T06:16:44.159Z,18.30
2022-12-15T06:19:17.509Z,17.80
2022-12-15T06:21:44.413Z,18.00
2022-12-15T06:24:11.473Z,18.40
2022-12-15T06:26:40.163Z,18.50
2022-12-15T06:29:10.716Z,18.30
2022-12-15T06:31:38.609Z,18.20
2022-12-15T06:34:07.680Z,18.40
2022-12-15T06:36:35.470Z,18.00
2022-12-15T06:39:04.387Z,17.70
2022-12-15T06:41:31.812Z,18.00
2022-12-15T06:44:01.290Z,18.10
2022-12-15T06:46:30.620Z,18.30
2022-12-15T06:48:58.426Z,17.90
2022-12-15T06:51:25.990Z,17.70
2022-12-15T06:53:56.569Z,18.40
2022-12-15T06:56:42.542Z,18.70
2022-12-15T06:59:11.301Z,18.40
2022-12-15T07:01:38.735Z,18.60
2022-12-15T07:04:06.254Z,18.40
2022-12-15T07:06:36.879Z,18.20
2022-12-15T07:09:05.243Z,18.60
2022-12-15T07:11:32.192Z,19.10
2022-12-15T07:13:59.220Z,19.70
2022-12-15T07:16:26.877Z,21.00
2022-12-15T07:18:53.953Z,21.50
2022-12-15T07:21:20.887Z,20.40
2022-12-15T07:23:56.821Z,19.60
2022-12-15T07:26:24.980Z,19.70
2022-12-15T07:28:53.740Z,20.30
2022-12-15T07:31:22.068Z,19.90
2022-12-15T07:33:49.367Z,19.20
2022-12-15T07:36:16.592Z,19.20
2022-12-15T07:38:45.640Z,18.80
2022-12-15T07:41:18.915Z,18.90
2022-12-15T07:43:47.196Z,18.70
2022-12-15T07:46:14.583Z,18.80
2022-12-15T07:48:41.575Z,19.00
2022-12-15T07:51:13.837Z,19.50
2022-12-15T07:53:47.708Z,20.50
2022-12-15T07:56:15.643Z,21.30
2022-12-15T07:58:42.739Z,20.90
2022-12-15T08:01:12.602Z,20.50
2022-12-15T08:03:41.181Z,20.60
2022-12-15T08:06:13.542Z,20.80
2022-12-15T08:08:40.938Z,20.90
2022-12-15T08:11:09.573Z,21.40
2022-12-15T08:16:24.276Z,21.40
2022-12-15T08:18:51.291Z,21.30
2022-12-15T08:21:18.441Z,21.00
2022-12-15T08:23:45.506Z,20.30
2022-12-15T08:26:15.242Z,19.60
2022-12-15T08:28:43.146Z,19.50
2022-12-15T08:31:13.754Z,19.60
2022-12-15T08:33:41.416Z,19.70
2022-12-15T08:36:10.932Z,19.40
2022-12-15T08:38:39.861Z,18.90
2022-12-15T08:41:28.656Z,19.20
2022-12-15T08:43:57.077Z,19.50
2022-12-15T08:46:27.848Z,19.40
2022-12-15T08:48:55.935Z,19.20
2022-12-15T08:51:25.469Z,19.00
2022-12-15T08:53:52.866Z,19.30
2022-12-15T08:56:22.343Z,18.80
2022-12-15T08:58:50.637Z,18.80
2022-12-15T09:01:24.315Z,18.50
2022-12-15T09:03:57.544Z,18.00
2022-12-15T09:06:28.092Z,17.60
2022-12-15T09:08:59.506Z,17.20
2022-12-15T09:11:28.647Z,16.70
2022-12-15T09:13:55.574Z,16.60
2022-12-15T09:16:22.933Z,17.00
2022-12-15T09:18:53.623Z,17.30
2022-12-15T09:21:26.355Z,17.30
2022-12-15T09:24:00.534Z,17.40
2022-12-15T09:26:33.265Z,17.50
2022-12-15T09:29:02.017Z,17.40
2022-12-15T09:31:33.881Z,17.30
2022-12-15T09:34:01.445Z,16.70
2022-12-15T09:36:30.270Z,16.10
2022-12-15T09:38:57.294Z,15.70
2022-12-15T09:41:30.003Z,15.40
2022-12-15T09:44:07.793Z,15.10
2022-12-15T09:47:09.007Z,14.80
2022-12-15T09:49:47.871Z,14.50
2022-12-15T09:52:18.251Z,14.70
2022-12-15T09:54:46.484Z,14.80
2022-12-15T09:57:21.567Z,14.80
2022-12-15T10:00:13.025Z,15.00
2022-12-15T10:03:12.225Z,15.10
2022-12-15T10:08:58.151Z,15.30
2022-12-15T10:12:10.035Z,15.50
2022-12-15T10:14:50.384Z,15.70
2022-12-15T10:17:17.288Z,15.50
2022-12-15T10:19:59.643Z,15.70
2022-12-15T10:22:31.491Z,16.00
2022-12-15T10:25:11.136Z,16.20
2022-12-15T10:27:56.605Z,16.40
2022-12-15T10:30:23.945Z,16.50
2022-12-15T10:33:16.933Z,16.40
2022-12-15T10:35:44.277Z,16.60
2022-12-15T10:38:38.646Z,16.80
2022-12-15T10:41:09.704Z,16.90
2022-12-15T10:43:40.935Z,17.40
2022-12-15T10:46:22.222Z,17.30
2022-12-15T10:48:58.191Z,17.20
2022-12-15T10:51:31.840Z,17.30
2022-12-15T10:54:13.140Z,17.60
2022-12-15T10:56:51.250Z,17.60
2022-12-15T10:59:36.118Z,17.40
2022-12-15T11:02:25.692Z,17.50
2022-12-15T11:04:58.464Z,17.70
2022-12-15T11:07:37.293Z,17.90
2022-12-15T11:10:50.337Z,18.00
2022-12-15T11:13:18.793Z,17.80
2022-12-15T11:15:56.647Z,18.00
2022-12-15T11:19:08.096Z,18.00
2022-12-15T11:21:48.687Z,18.20
2022-12-15T11:24:26.084Z,17.50
2022-12-15T11:26:59.506Z,17.40
2022-12-15T11:29:44.277Z,17.30
2022-12-15T11:32:13.085Z,17.20
2022-12-15T11:34:44.392Z,17.40
2022-12-15T11:37:38.555Z,17.30
2022-12-15T11:40:24.028Z,16.80
2022-12-15T11:43:19.845Z,16.60
2022-12-15T11:46:05.212Z,16.20
2022-12-15T11:48:54.878Z,16.20
2022-12-15T11:51:33.139Z,17.70
2022-12-15T11:54:14.185Z,18.60
2022-12-15T11:56:56.257Z,18.80
2022-12-15T11:59:47.351Z,19.20
2022-12-15T12:02:21.794Z,18.70
2022-12-15T12:04:57.985Z,18.30
2022-12-15T12:10:48.598Z,18.10
2022-12-15T12:13:35.607Z,18.90
2022-12-15T12:16:18.589Z,19.70
2022-12-15T12:18:50.443Z,20.20
2022-12-15T12:21:24.490Z,20.30
2022-12-15T12:24:20.923Z,20.40
2022-12-15T12:27:08.992Z,21.10
2022-12-15T12:29:42.131Z,22.10
2022-12-15T12:32:19.498Z,22.30
2022-12-15T12:35:29.926Z,21.90
2022-12-15T12:38:03.405Z,22.20
2022-12-15T12:40:49.034Z,22.20
2022-12-15T12:43:41.619Z,22.30
2022-12-15T12:46:11.169Z,22.00
2022-12-15T12:48:48.535Z,21.70
2022-12-15T12:51:27.465Z,20.80
2022-12-15T12:53:55.229Z,20.20
2022-12-15T12:56:40.176Z,19.90
2022-12-15T12:59:30.041Z,19.70
2022-12-15T13:02:18.020Z,20.40
2022-12-15T13:04:52.396Z,21.40
2022-12-15T13:07:38.871Z,21.90
2022-12-15T13:10:08.509Z,21.90
2022-12-15T13:12:53.467Z,22.50
2022-12-15T13:15:29.828Z,22.80
2022-12-15T13:18:16.973Z,22.70
2022-12-15T13:20:45.628Z,22.40
2022-12-15T13:23:20.387Z,22.20
2022-12-15T13:26:02.787Z,21.80
2022-12-15T13:28:44.194Z,21.00
2022-12-15T13:31:15.054Z,20.40
2022-12-15T13:34:15.135Z,20.00
2022-12-15T13:36:42.184Z,20.50
2022-12-15T13:39:14.566Z,21.00
2022-12-15T13:42:15.427Z,21.60
2022-12-15T13:44:41.272Z,22.70
2022-12-15T13:47:17.475Z,22.80
2022-12-15T13:50:03.717Z,23.10
2022-12-15T13:55:41.048Z,22.80
2022-12-15T13:58:16.235Z,22.30
2022-12-15T14:00:57.510Z,21.80
2022-12-15T14:03:25.778Z,21.30
2022-12-15T14:05:56.799Z,20.80
2022-12-15T14:08:29.556Z,19.70
2022-12-15T14:10:59.992Z,19.20
2022-12-15T14:13:30.912Z,20.00
2022-12-15T14:16:19.197Z,20.30
2022-12-15T14:19:14.645Z,20.90
2022-12-15T14:21:56.810Z,21.20
2022-12-15T14:27:28.459Z,22.20
2022-12-15T14:30:28.477Z,22.30
2022-12-15T14:33:07.821Z,22.90
2022-12-15T14:35:49.638Z,23.60
2022-12-15T14:38:27.972Z,24.00
2022-12-15T14:40:57.468Z,23.90
2022-12-15T14:43:34.469Z,24.30
2022-12-15T14:46:16.461Z,24.50
2022-12-15T14:49:14.903Z,24.60
2022-12-15T14:51:46.824Z,24.30
2022-12-15T14:54:49.831Z,23.80
2022-12-15T14:57:23.060Z,23.30
2022-12-15T14:59:51.547Z,23.30
2022-12-15T15:02:27.218Z,22.80
2022-12-15T15:03:07.047Z,17.80
2022-12-15T15:03:10.065Z,15.10
2022-12-15T15:03:14.310Z,21.90
2022-12-15T15:05:07.553Z,23.00
2022-12-15T15:07:42.737Z,23.20
2022-12-15T15:10:23.894Z,23.10
2022-12-15T15:12:52.628Z,23.60
2022-12-15T15:15:26.853Z,24.30
2022-12-15T15:17:57.149Z,23.70
2022-12-15T15:20:31.200Z,24.90
2022-12-15T15:23:04.337Z,24.40
2022-12-15T15:25:39.372Z,25.50
2022-12-15T15:28:17.019Z,26.30
2022-12-15T15:30:51.959Z,27.00
2022-12-15T15:33:29.138Z,28.30
2022-12-15T15:35:58.811Z,29.00
2022-12-15T15:38:29.322Z,29.60
2022-12-15T15:41:04.353Z,29.90
2022-12-15T15:43:31.311Z,28.60
2022-12-15T15:46:02.444Z,27.10
2022-12-15T15:48:52.845Z,25.20
2022-12-15T15:51:23.986Z,23.30
2022-12-15T15:53:52.870Z,23.00
2022-12-15T15:56:21.052Z,23.40
2022-12-15T15:58:50.618Z,23.60
2022-12-15T16:01:17.580Z,23.70
2022-12-15T16:03:44.761Z,22.90
2022-12-15T16:06:20.527Z,22.80
2022-12-15T16:08:53.756Z,22.70
2022-12-15T16:11:25.521Z,22.50
2022-12-15T16:13:57.097Z,23.30
2022-12-15T16:16:36.127Z,23.50
2022-12-15T16:19:03.640Z,23.50
2022-12-15T16:21:35.540Z,22.90
2022-12-15T16:24:16.634Z,22.10
2022-12-15T16:26:50.324Z,22.10
2022-12-15T16:29:22.841Z,22.00
2022-12-15T16:31:49.954Z,21.20
2022-12-15T16:34:20.694Z,21.10
2022-12-15T16:36:47.933Z,21.40
2022-12-15T16:39:28.510Z,20.90
2022-12-15T16:41:57.271Z,20.30
2022-12-15T16:44:26.053Z,20.20
2022-12-15T16:46:53.626Z,20.40
2022-12-15T16:49:20.711Z,20.70
2022-12-15T16:51:51.213Z,20.60
2022-12-15T16:54:22.563Z,21.00
2022-12-15T16:56:53.209Z,20.70
2022-12-15T16:59:33.066Z,20.00
2022-12-15T17:02:01.504Z,19.50
2022-12-15T17:04:28.956Z,19.50
2022-12-15T17:06:55.953Z,19.70
2022-12-15T17:09:25.694Z,19.90
2022-12-15T17:11:52.740Z,20.40
2022-12-15T17:14:19.678Z,21.10
2022-12-15T17:16:46.729Z,21.10
2022-12-15T17:19:19.249Z,21.20
2022-12-15T17:21:50.791Z,21.60
2022-12-15T17:24:20.508Z,21.30
2022-12-15T17:26:50.726Z,21.10
2022-12-15T17:29:22.935Z,20.70
2022-12-15T17:31:50.662Z,20.00
2022-12-15T17:34:27.980Z,19.50
2022-12-15T17:36:59.388Z,19.70
2022-12-15T17:39:27.097Z,19.90
2022-12-15T17:42:02.906Z,19.70
2022-12-15T17:44:37.942Z,19.50
2022-12-15T17:47:08.118Z,19.30
2022-12-15T17:49:38.379Z,19.50
2022-12-15T17:52:32.816Z,19.40
2022-12-15T17:55:01.506Z,19.40
2022-12-15T17:57:31.731Z,19.30
2022-12-15T18:00:02.134Z,19.10
2022-12-15T18:02:29.600Z,19.00
2022-12-15T18:04:56.848Z,18.90
2022-12-15T18:07:24.407Z,19.20
2022-12-15T18:09:52.534Z,20.00
2022-12-15T18:12:24.695Z,19.40
2022-12-15T18:14:53.285Z,19.40
2022-12-15T18:17:22.321Z,19.50
2022-12-15T18:19:49.343Z,19.60
2022-12-15T18:22:24.374Z,19.70
2022-12-15T18:24:53.879Z,19.60
2022-12-15T18:27:27.195Z,19.80
2022-12-15T18:29:54.597Z,19.70
2022-12-15T18:32:24.049Z,20.60
2022-12-15T18:34:51.719Z,20.60
2022-12-15T18:37:20.810Z,20.20
2022-12-15T18:39:48.102Z,20.20
2022-12-15T18:42:18.019Z,20.30
2022-12-15T18:44:53.316Z,20.30
2022-12-15T18:47:22.954Z,21.00
2022-12-15T18:49:50.805Z,21.10
2022-12-15T18:52:22.889Z,21.50
2022-12-15T18:54:52.266Z,21.70
2022-12-15T18:57:29.458Z,22.30
2022-12-15T19:00:02.493Z,21.90
2022-12-15T19:02:29.695Z,21.60
2022-12-15T19:04:56.871Z,22.20
2022-12-15T19:07:23.937Z,22.50
2022-12-15T19:09:51.091Z,22.40
2022-12-15T19:12:18.462Z,22.20
2022-12-15T19:14:51.180Z,22.20
2022-12-15T19:17:39.275Z,22.30
2022-12-15T19:20:37.341Z,23.00
2022-12-15T19:23:05.625Z,23.00
2022-12-15T19:25:33.218Z,23.10
2022-12-15T19:28:00.959Z,22.60
2022-12-15T19:30:37.044Z,22.20
2022-12-15T19:33:08.562Z,22.50
2022-12-15T19:35:37.174Z,22.20
2022-12-15T19:38:04.329Z,22.60
2022-12-15T19:40:33.564Z,22.90
2022-12-15T19:43:01.548Z,23.00
2022-12-15T19:45:31.466Z,22.60
2022-12-15T19:47:59.330Z,21.80
2022-12-15T19:50:30.424Z,21.90
2022-12-15T19:53:01.057Z,22.30
2022-12-15T19:55:34.601Z,23.30
2022-12-15T19:58:22.231Z,23.10
2022-12-15T20:00:52.523Z,22.70
2022-12-15T20:03:20.740Z,22.50
2022-12-15T20:05:50.315Z,22.70
2022-12-15T20:08:24.096Z,22.30
2022-12-15T20:10:51.682Z,22.00
2022-12-15T20:13:18.811Z,21.90
2022-12-15T20:15:45.882Z,22.20
2022-12-15T20:18:13.186Z,22.90
2022-12-15T20:20:41.769Z,22.90
2022-12-15T20:23:27.838Z,23.40
2022-12-15T20:25:56.356Z,23.50
2022-12-15T20:28:26.310Z,23.00
2022-12-15T20:30:54.077Z,22.60
2022-12-15T20:33:21.149Z,22.30
2022-12-15T20:35:49.826Z,22.70
2022-12-15T20:38:33.322Z,23.20
2022-12-15T20:41:02.396Z,23.30
2022-12-15T20:43:35.241Z,23.50
2022-12-15T20:46:19.382Z,23.50
2022-12-15T20:48:50.736Z,23.40
2022-12-15T20:51:29.886Z,23.00
2022-12-15T20:53:59.933Z,24.00
2022-12-15T20:56:27.728Z,24.30
2022-12-15T20:58:56.768Z,23.90
2022-12-15T21:01:33.031Z,23.60
2022-12-15T21:04:06.871Z,22.60
2022-12-15T21:06:33.905Z,21.80
2022-12-15T21:09:00.862Z,21.40
2022-12-15T21:11:32.632Z,22.40
2022-12-15T21:14:04.276Z,22.00
2022-12-15T21:16:32.387Z,21.80
2022-12-15T21:19:19.641Z,21.50
2022-12-15T21:21:51.987Z,21.80
2022-12-15T21:24:20.339Z,21.70
2022-12-15T21:26:47.690Z,21.50
2022-12-15T21:29:20.209Z,21.10
2022-12-15T21:31:47.714Z,20.90
2022-12-15T21:34:14.932Z,21.00
2022-12-15T21:36:47.963Z,21.30
2022-12-15T21:39:25.376Z,21.30
2022-12-15T21:41:52.402Z,21.00
2022-12-15T21:44:22.078Z,20.70
2022-12-15T21:46:49.008Z,20.10
2022-12-15T21:49:18.606Z,20.60
2022-12-15T21:52:00.389Z,20.60
2022-12-15T21:54:32.900Z,20.00
2022-12-15T21:57:00.993Z,19.70
2022-12-15T21:59:30.908Z,19.50
2022-12-15T22:02:00.347Z,20.00
2022-12-15T22:04:31.529Z,20.30
2022-12-15T22:06:58.566Z,20.20
2022-12-15T22:09:25.714Z,20.10
2022-12-15T22:11:54.830Z,20.10
2022-12-15T22:14:34.915Z,20.60
2022-12-15T22:17:15.885Z,20.50
2022-12-15T22:19:42.884Z,20.30
2022-12-15T22:22:09.814Z,19.70
2022-12-15T22:24:36.831Z,19.40
2022-12-15T22:27:03.841Z,19.00
2022-12-15T22:29:31.709Z,18.70
2022-12-15T22:31:58.717Z,18.50
2022-12-15T22:34:27.187Z,18.80
2022-12-15T22:36:54.798Z,18.80
2022-12-15T22:39:22.025Z,18.90
2022-12-15T22:41:51.538Z,19.00
2022-12-15T22:44:27.645Z,19.00
2022-12-15T22:46:56.894Z,18.90
2022-12-15T22:49:27.843Z,18.80
2022-12-15T22:51:54.897Z,19.30
2022-12-15T22:54:27.469Z,19.40
2022-12-15T22:56:59.082Z,19.30
2022-12-15T22:59:46.674Z,19.70
2022-12-15T23:02:13.641Z,19.30
2022-12-15T23:04:40.968Z,19.30
2022-12-15T23:07:11.690Z,19.40
2022-12-15T23:09:38.860Z,19.20
2022-12-15T23:12:06.004Z,18.60
2022-12-15T23:14:51.377Z,18.30
2022-12-15T23:17:18.527Z,18.50
2022-12-15T23:19:46.085Z,18.60
2022-12-15T23:22:13.764Z,18.40
2022-12-15T23:24:40.968Z,18.50
2022-12-15T23:27:11.794Z,18.80
2022-12-15T23:29:38.777Z,18.70
2022-12-15T23:32:06.132Z,18.50
2022-12-15T23:34:33.064Z,18.60
2022-12-15T23:37:00.909Z,18.80
2022-12-15T23:39:27.852Z,19.50
2022-12-15T23:41:54.798Z,19.80
2022-12-15T23:44:22.242Z,20.10
2022-12-15T23:46:49.183Z,20.40
2022-12-15T23:49:16.123Z,20.30
2022-12-15T23:51:43.008Z,19.90
2022-12-15T23:54:10.263Z,19.90
2022-12-15T23:56:39.507Z,19.60
2022-12-15T23:59:06.451Z,19.40
